sensor_id;sensor_type;location;lat;lon;timestamp;P1;durP1;ratioP1;P2;durP2;ratioP2
21281;SDS011;10800;53.096;18.328;2023-08-30T00:02:49;18.30;;;8.93;;
21281;SDS011;10800;53.096;18.328;2023-08-30T00:07:56;17.20;;;8.63;;
21281;SDS011;10800;53.096;18.328;2023-08-30T00:13:04;17.00;;;8.53;;
21281;SDS011;10800;53.096;18.328;2023-08-30T00:18:10;15.80;;;8.70;;
21281;SDS011;10800;53.096;18.328;2023-08-30T00:23:18;18.13;;;8.97;;
21281;SDS011;10800;53.096;18.328;2023-08-30T00:28:29;16.53;;;8.17;;
21281;SDS011;10800;53.096;18.328;2023-08-30T00:33:35;12.27;;;7.97;;
21281;SDS011;10800;53.096;18.328;2023-08-30T00:38:41;15.50;;;6.70;;
21281;SDS011;10800;53.096;18.328;2023-08-30T00:43:49;21.53;;;7.30;;
21281;SDS011;10800;53.096;18.328;2023-08-30T00:48:56;9.67;;;6.63;;
21281;SDS011;10800;53.096;18.328;2023-08-30T00:54:03;11.40;;;6.07;;
21281;SDS011;10800;53.096;18.328;2023-08-30T00:59:16;10.53;;;6.00;;
21281;SDS011;10800;53.096;18.328;2023-08-30T01:04:26;9.43;;;5.37;;
21281;SDS011;10800;53.096;18.328;2023-08-30T01:09:37;9.83;;;6.67;;
21281;SDS011;10800;53.096;18.328;2023-08-30T01:15:06;9.93;;;5.57;;
21281;SDS011;10800;53.096;18.328;2023-08-30T01:20:37;8.97;;;5.43;;
21281;SDS011;10800;53.096;18.328;2023-08-30T01:26:13;9.67;;;5.43;;
21281;SDS011;10800;53.096;18.328;2023-08-30T01:31:21;8.30;;;5.57;;
21281;SDS011;10800;53.096;18.328;2023-08-30T01:36:41;12.17;;;5.13;;
21281;SDS011;10800;53.096;18.328;2023-08-30T01:41:52;8.73;;;5.00;;
21281;SDS011;10800;53.096;18.328;2023-08-30T01:47:04;8.63;;;5.10;;
21281;SDS011;10800;53.096;18.328;2023-08-30T01:52:13;8.50;;;4.67;;
21281;SDS011;10800;53.096;18.328;2023-08-30T01:57:21;9.10;;;5.17;;
21281;SDS011;10800;53.096;18.328;2023-08-30T02:02:47;7.67;;;4.67;;
21281;SDS011;10800;53.096;18.328;2023-08-30T02:08:16;8.73;;;5.03;;
21281;SDS011;10800;53.096;18.328;2023-08-30T02:13:29;12.27;;;5.43;;
21281;SDS011;10800;53.096;18.328;2023-08-30T02:18:40;7.67;;;4.73;;
21281;SDS011;10800;53.096;18.328;2023-08-30T02:24:07;11.60;;;5.77;;
21281;SDS011;10800;53.096;18.328;2023-08-30T02:29:35;10.87;;;4.77;;
21281;SDS011;10800;53.096;18.328;2023-08-30T02:34:45;15.17;;;5.33;;
21281;SDS011;10800;53.096;18.328;2023-08-30T02:39:54;9.30;;;4.97;;
21281;SDS011;10800;53.096;18.328;2023-08-30T02:45:02;12.10;;;6.47;;
21281;SDS011;10800;53.096;18.328;2023-08-30T02:50:10;14.97;;;5.97;;
21281;SDS011;10800;53.096;18.328;2023-08-30T02:55:16;13.03;;;6.17;;
21281;SDS011;10800;53.096;18.328;2023-08-30T03:00:22;19.53;;;7.73;;
21281;SDS011;10800;53.096;18.328;2023-08-30T03:05:30;17.00;;;7.07;;
21281;SDS011;10800;53.096;18.328;2023-08-30T03:10:39;18.30;;;8.00;;
21281;SDS011;10800;53.096;18.328;2023-08-30T03:15:44;14.67;;;7.60;;
21281;SDS011;10800;53.096;18.328;2023-08-30T03:20:59;18.67;;;7.67;;
21281;SDS011;10800;53.096;18.328;2023-08-30T03:26:27;20.33;;;7.87;;
21281;SDS011;10800;53.096;18.328;2023-08-30T03:31:33;14.03;;;7.13;;
21281;SDS011;10800;53.096;18.328;2023-08-30T03:36:40;18.37;;;8.23;;
21281;SDS011;10800;53.096;18.328;2023-08-30T03:41:47;17.10;;;8.33;;
21281;SDS011;10800;53.096;18.328;2023-08-30T03:46:54;16.00;;;7.10;;
21281;SDS011;10800;53.096;18.328;2023-08-30T03:52:00;18.60;;;7.83;;
21281;SDS011;10800;53.096;18.328;2023-08-30T03:57:06;19.47;;;8.23;;
21281;SDS011;10800;53.096;18.328;2023-08-30T04:02:12;17.27;;;7.87;;
21281;SDS011;10800;53.096;18.328;2023-08-30T04:07:17;13.93;;;6.47;;
21281;SDS011;10800;53.096;18.328;2023-08-30T04:12:23;17.90;;;6.50;;
21281;SDS011;10800;53.096;18.328;2023-08-30T04:17:31;11.50;;;5.47;;
21281;SDS011;10800;53.096;18.328;2023-08-30T04:22:36;12.07;;;5.47;;
21281;SDS011;10800;53.096;18.328;2023-08-30T04:27:49;11.80;;;6.20;;
21281;SDS011;10800;53.096;18.328;2023-08-30T04:32:55;9.97;;;4.50;;
21281;SDS011;10800;53.096;18.328;2023-08-30T04:38:05;7.90;;;4.00;;
21281;SDS011;10800;53.096;18.328;2023-08-30T04:43:12;9.13;;;4.07;;
21281;SDS011;10800;53.096;18.328;2023-08-30T04:48:18;8.50;;;3.73;;
21281;SDS011;10800;53.096;18.328;2023-08-30T04:53:26;6.47;;;3.93;;
21281;SDS011;10800;53.096;18.328;2023-08-30T04:58:35;7.23;;;4.07;;
21281;SDS011;10800;53.096;18.328;2023-08-30T05:03:47;7.43;;;3.77;;
21281;SDS011;10800;53.096;18.328;2023-08-30T05:08:55;6.97;;;3.77;;
21281;SDS011;10800;53.096;18.328;2023-08-30T05:14:22;9.37;;;5.17;;
21281;SDS011;10800;53.096;18.328;2023-08-30T05:19:34;9.20;;;5.33;;
21281;SDS011;10800;53.096;18.328;2023-08-30T05:24:46;12.30;;;5.80;;
21281;SDS011;10800;53.096;18.328;2023-08-30T05:30:03;11.47;;;6.40;;
21281;SDS011;10800;53.096;18.328;2023-08-30T05:35:26;10.00;;;5.43;;
21281;SDS011;10800;53.096;18.328;2023-08-30T05:40:31;10.77;;;5.50;;
21281;SDS011;10800;53.096;18.328;2023-08-30T05:45:39;10.57;;;4.77;;
21281;SDS011;10800;53.096;18.328;2023-08-30T05:51:03;6.17;;;3.87;;
21281;SDS011;10800;53.096;18.328;2023-08-30T05:56:12;6.40;;;3.53;;
21281;SDS011;10800;53.096;18.328;2023-08-30T06:01:19;6.57;;;4.10;;
21281;SDS011;10800;53.096;18.328;2023-08-30T06:06:25;4.70;;;3.37;;
21281;SDS011;10800;53.096;18.328;2023-08-30T06:11:33;3.80;;;2.37;;
21281;SDS011;10800;53.096;18.328;2023-08-30T06:16:39;6.10;;;3.33;;
21281;SDS011;10800;53.096;18.328;2023-08-30T06:21:47;3.10;;;2.20;;
21281;SDS011;10800;53.096;18.328;2023-08-30T06:26:55;4.20;;;2.80;;
21281;SDS011;10800;53.096;18.328;2023-08-30T06:32:02;11.43;;;4.10;;
21281;SDS011;10800;53.096;18.328;2023-08-30T06:37:09;11.00;;;5.07;;
21281;SDS011;10800;53.096;18.328;2023-08-30T06:42:14;8.70;;;5.00;;
21281;SDS011;10800;53.096;18.328;2023-08-30T06:47:20;8.93;;;5.17;;
21281;SDS011;10800;53.096;18.328;2023-08-30T06:52:25;8.67;;;4.13;;
21281;SDS011;10800;53.096;18.328;2023-08-30T06:57:30;4.43;;;2.77;;
21281;SDS011;10800;53.096;18.328;2023-08-30T07:02:38;5.50;;;3.37;;
21281;SDS011;10800;53.096;18.328;2023-08-30T07:07:48;5.93;;;3.30;;
21281;SDS011;10800;53.096;18.328;2023-08-30T07:12:53;4.33;;;2.77;;
21281;SDS011;10800;53.096;18.328;2023-08-30T07:18:01;5.63;;;3.43;;
21281;SDS011;10800;53.096;18.328;2023-08-30T07:23:07;4.13;;;2.53;;
21281;SDS011;10800;53.096;18.328;2023-08-30T07:28:14;9.63;;;4.93;;
21281;SDS011;10800;53.096;18.328;2023-08-30T07:33:21;10.13;;;5.40;;
21281;SDS011;10800;53.096;18.328;2023-08-30T07:38:28;9.53;;;5.17;;
21281;SDS011;10800;53.096;18.328;2023-08-30T07:43:33;8.20;;;4.20;;
21281;SDS011;10800;53.096;18.328;2023-08-30T07:48:39;6.43;;;4.60;;
21281;SDS011;10800;53.096;18.328;2023-08-30T07:53:44;11.07;;;5.43;;
21281;SDS011;10800;53.096;18.328;2023-08-30T07:58:50;15.37;;;10.13;;
21281;SDS011;10800;53.096;18.328;2023-08-30T08:03:55;3.10;;;2.33;;
21281;SDS011;10800;53.096;18.328;2023-08-30T08:09:02;7.20;;;2.30;;
21281;SDS011;10800;53.096;18.328;2023-08-30T08:14:07;2.70;;;2.20;;
21281;SDS011;10800;53.096;18.328;2023-08-30T08:19:14;7.20;;;4.77;;
21281;SDS011;10800;53.096;18.328;2023-08-30T08:24:20;5.90;;;3.90;;
21281;SDS011;10800;53.096;18.328;2023-08-30T08:29:30;11.10;;;3.90;;
21281;SDS011;10800;53.096;18.328;2023-08-30T08:34:38;4.47;;;3.13;;
21281;SDS011;10800;53.096;18.328;2023-08-30T08:39:44;9.23;;;2.87;;
21281;SDS011;10800;53.096;18.328;2023-08-30T08:44:53;6.47;;;3.63;;
21281;SDS011;10800;53.096;18.328;2023-08-30T08:50:01;6.67;;;4.70;;
21281;SDS011;10800;53.096;18.328;2023-08-30T08:55:16;8.83;;;4.23;;
21281;SDS011;10800;53.096;18.328;2023-08-30T09:00:23;7.87;;;5.10;;
21281;SDS011;10800;53.096;18.328;2023-08-30T09:05:33;8.50;;;5.57;;
21281;SDS011;10800;53.096;18.328;2023-08-30T09:10:41;10.27;;;4.87;;
21281;SDS011;10800;53.096;18.328;2023-08-30T09:15:52;9.17;;;4.90;;
21281;SDS011;10800;53.096;18.328;2023-08-30T09:21:07;9.93;;;5.10;;
21281;SDS011;10800;53.096;18.328;2023-08-30T09:26:13;9.80;;;5.47;;
21281;SDS011;10800;53.096;18.328;2023-08-30T09:31:25;10.03;;;4.97;;
21281;SDS011;10800;53.096;18.328;2023-08-30T09:36:36;8.17;;;4.93;;
21281;SDS011;10800;53.096;18.328;2023-08-30T09:41:47;8.80;;;5.20;;
21281;SDS011;10800;53.096;18.328;2023-08-30T09:46:56;6.67;;;4.00;;
21281;SDS011;10800;53.096;18.328;2023-08-30T09:52:06;8.87;;;3.90;;
21281;SDS011;10800;53.096;18.328;2023-08-30T09:57:13;4.00;;;3.00;;
21281;SDS011;10800;53.096;18.328;2023-08-30T10:02:26;4.27;;;3.43;;
21281;SDS011;10800;53.096;18.328;2023-08-30T10:07:41;6.10;;;4.03;;
21281;SDS011;10800;53.096;18.328;2023-08-30T10:12:48;2.90;;;2.27;;
21281;SDS011;10800;53.096;18.328;2023-08-30T10:17:55;2.57;;;2.20;;
21281;SDS011;10800;53.096;18.328;2023-08-30T10:23:05;2.73;;;2.10;;
21281;SDS011;10800;53.096;18.328;2023-08-30T10:28:24;3.50;;;2.67;;
21281;SDS011;10800;53.096;18.328;2023-08-30T10:33:54;2.50;;;2.30;;
21281;SDS011;10800;53.096;18.328;2023-08-30T10:39:02;4.00;;;2.50;;
21281;SDS011;10800;53.096;18.328;2023-08-30T10:44:17;3.07;;;2.70;;
21281;SDS011;10800;53.096;18.328;2023-08-30T10:49:47;5.07;;;2.90;;
21281;SDS011;10800;53.096;18.328;2023-08-30T10:55:07;6.47;;;3.00;;
21281;SDS011;10800;53.096;18.328;2023-08-30T11:05:26;5.20;;;3.00;;
21281;SDS011;10800;53.096;18.328;2023-08-30T11:10:36;5.77;;;2.80;;
21281;SDS011;10800;53.096;18.328;2023-08-30T11:15:46;4.87;;;3.57;;
21281;SDS011;10800;53.096;18.328;2023-08-30T11:21:00;5.40;;;3.57;;
21281;SDS011;10800;53.096;18.328;2023-08-30T11:26:13;6.30;;;4.07;;
21281;SDS011;10800;53.096;18.328;2023-08-30T11:31:23;4.43;;;3.40;;
21281;SDS011;10800;53.096;18.328;2023-08-30T11:36:38;5.90;;;3.30;;
21281;SDS011;10800;53.096;18.328;2023-08-30T11:41:46;4.00;;;3.40;;
21281;SDS011;10800;53.096;18.328;2023-08-30T11:47:01;4.70;;;3.03;;
21281;SDS011;10800;53.096;18.328;2023-08-30T11:52:09;3.93;;;3.47;;
21281;SDS011;10800;53.096;18.328;2023-08-30T11:57:16;5.83;;;3.80;;
21281;SDS011;10800;53.096;18.328;2023-08-30T12:02:21;3.30;;;2.80;;
21281;SDS011;10800;53.096;18.328;2023-08-30T12:07:29;3.20;;;2.70;;
21281;SDS011;10800;53.096;18.328;2023-08-30T12:12:43;5.47;;;2.33;;
21281;SDS011;10800;53.096;18.328;2023-08-30T12:17:47;1.77;;;1.40;;
21281;SDS011;10800;53.096;18.328;2023-08-30T12:22:53;1.67;;;1.37;;
21281;SDS011;10800;53.096;18.328;2023-08-30T12:27:58;2.30;;;1.37;;
21281;SDS011;10800;53.096;18.328;2023-08-30T12:33:04;1.47;;;1.20;;
21281;SDS011;10800;53.096;18.328;2023-08-30T12:38:10;1.90;;;1.33;;
21281;SDS011;10800;53.096;18.328;2023-08-30T12:43:21;0.80;;;0.80;;
21281;SDS011;10800;53.096;18.328;2023-08-30T12:48:29;1.23;;;1.10;;
21281;SDS011;10800;53.096;18.328;2023-08-30T12:53:34;1.17;;;0.90;;
21281;SDS011;10800;53.096;18.328;2023-08-30T12:58:39;1.10;;;1.00;;
21281;SDS011;10800;53.096;18.328;2023-08-30T13:03:44;4.15;;;0.85;;
21281;SDS011;10800;53.096;18.328;2023-08-30T13:08:49;1.80;;;0.90;;
21281;SDS011;10800;53.096;18.328;2023-08-30T13:13:55;0.80;;;0.80;;
21281;SDS011;10800;53.096;18.328;2023-08-30T13:19:05;1.83;;;0.90;;
21281;SDS011;10800;53.096;18.328;2023-08-30T13:24:59;3.93;;;1.30;;
21281;SDS011;10800;53.096;18.328;2023-08-30T13:30:06;1.20;;;1.10;;
21281;SDS011;10800;53.096;18.328;2023-08-30T13:35:14;1.97;;;0.97;;
21281;SDS011;10800;53.096;18.328;2023-08-30T13:40:21;1.30;;;1.20;;
21281;SDS011;10800;53.096;18.328;2023-08-30T13:45:27;0.67;;;0.67;;
21281;SDS011;10800;53.096;18.328;2023-08-30T13:50:43;0.70;;;0.70;;
21281;SDS011;10800;53.096;18.328;2023-08-30T13:55:50;0.50;;;0.50;;
21281;SDS011;10800;53.096;18.328;2023-08-30T14:00:57;3.27;;;1.30;;
21281;SDS011;10800;53.096;18.328;2023-08-30T14:06:03;3.90;;;1.60;;
21281;SDS011;10800;53.096;18.328;2023-08-30T14:11:09;0.70;;;0.70;;
21281;SDS011;10800;53.096;18.328;2023-08-30T14:16:35;0.57;;;0.57;;
21281;SDS011;10800;53.096;18.328;2023-08-30T14:21:40;0.60;;;0.60;;
21281;SDS011;10800;53.096;18.328;2023-08-30T14:26:46;0.73;;;0.70;;
21281;SDS011;10800;53.096;18.328;2023-08-30T14:31:52;2.00;;;0.90;;
21281;SDS011;10800;53.096;18.328;2023-08-30T14:36:59;3.00;;;1.13;;
21281;SDS011;10800;53.096;18.328;2023-08-30T14:42:08;1.27;;;1.00;;
21281;SDS011;10800;53.096;18.328;2023-08-30T14:47:32;3.33;;;1.13;;
21281;SDS011;10800;53.096;18.328;2023-08-30T14:52:41;3.77;;;1.67;;
21281;SDS011;10800;53.096;18.328;2023-08-30T14:57:51;1.60;;;1.50;;
21281;SDS011;10800;53.096;18.328;2023-08-30T15:03:24;2.07;;;1.57;;
21281;SDS011;10800;53.096;18.328;2023-08-30T15:08:35;3.00;;;1.67;;
21281;SDS011;10800;53.096;18.328;2023-08-30T15:19:20;1.07;;;0.73;;
21281;SDS011;10800;53.096;18.328;2023-08-30T15:24:30;0.60;;;0.47;;
21281;SDS011;10800;53.096;18.328;2023-08-30T15:30:02;0.87;;;0.60;;
21281;SDS011;10800;53.096;18.328;2023-08-30T15:35:11;0.40;;;0.40;;
21281;SDS011;10800;53.096;18.328;2023-08-30T15:40:27;1.70;;;0.30;;
21281;SDS011;10800;53.096;18.328;2023-08-30T15:45:55;1.23;;;0.50;;
21281;SDS011;10800;53.096;18.328;2023-08-30T15:51:08;1.23;;;0.47;;
21281;SDS011;10800;53.096;18.328;2023-08-30T15:56:20;0.83;;;0.50;;
21281;SDS011;10800;53.096;18.328;2023-08-30T16:01:39;0.40;;;0.40;;
21281;SDS011;10800;53.096;18.328;2023-08-30T16:12:23;0.40;;;0.40;;
21281;SDS011;10800;53.096;18.328;2023-08-30T16:17:44;0.97;;;0.40;;
21281;SDS011;10800;53.096;18.328;2023-08-30T16:22:52;4.70;;;0.33;;
21281;SDS011;10800;53.096;18.328;2023-08-30T16:28:05;0.40;;;0.40;;
21281;SDS011;10800;53.096;18.328;2023-08-30T16:33:32;0.30;;;0.30;;
21281;SDS011;10800;53.096;18.328;2023-08-30T16:38:48;0.27;;;0.27;;
21281;SDS011;10800;53.096;18.328;2023-08-30T16:44:03;0.53;;;0.50;;
21281;SDS011;10800;53.096;18.328;2023-08-30T16:49:34;1.00;;;0.60;;
21281;SDS011;10800;53.096;18.328;2023-08-30T16:54:52;2.93;;;0.50;;
21281;SDS011;10800;53.096;18.328;2023-08-30T17:00:10;0.70;;;0.70;;
21281;SDS011;10800;53.096;18.328;2023-08-30T17:11:04;0.90;;;0.60;;
21281;SDS011;10800;53.096;18.328;2023-08-30T17:16:24;0.83;;;0.47;;
21281;SDS011;10800;53.096;18.328;2023-08-30T17:21:37;0.40;;;0.40;;
21281;SDS011;10800;53.096;18.328;2023-08-30T17:32:09;1.00;;;0.70;;
21281;SDS011;10800;53.096;18.328;2023-08-30T17:37:18;1.40;;;0.30;;
21281;SDS011;10800;53.096;18.328;2023-08-30T17:42:41;0.50;;;0.50;;
21281;SDS011;10800;53.096;18.328;2023-08-30T17:47:56;0.73;;;0.67;;
21281;SDS011;10800;53.096;18.328;2023-08-30T17:53:10;0.60;;;0.57;;
21281;SDS011;10800;53.096;18.328;2023-08-30T17:58:23;1.10;;;0.90;;
21281;SDS011;10800;53.096;18.328;2023-08-30T18:03:39;1.20;;;0.60;;
21281;SDS011;10800;53.096;18.328;2023-08-30T18:08:46;0.60;;;0.57;;
21281;SDS011;10800;53.096;18.328;2023-08-30T18:13:59;0.37;;;0.37;;
21281;SDS011;10800;53.096;18.328;2023-08-30T18:19:08;2.93;;;1.40;;
21281;SDS011;10800;53.096;18.328;2023-08-30T18:24:20;3.87;;;1.27;;
21281;SDS011;10800;53.096;18.328;2023-08-30T18:29:29;1.20;;;0.73;;
21281;SDS011;10800;53.096;18.328;2023-08-30T18:35:01;1.77;;;0.70;;
21281;SDS011;10800;53.096;18.328;2023-08-30T18:40:41;0.93;;;0.60;;
21281;SDS011;10800;53.096;18.328;2023-08-30T18:45:51;1.00;;;0.70;;
21281;SDS011;10800;53.096;18.328;2023-08-30T18:51:22;1.57;;;0.60;;
21281;SDS011;10800;53.096;18.328;2023-08-30T18:56:50;2.73;;;1.30;;
21281;SDS011;10800;53.096;18.328;2023-08-30T19:02:19;4.10;;;2.10;;
21281;SDS011;10800;53.096;18.328;2023-08-30T19:07:30;3.40;;;1.63;;
21281;SDS011;10800;53.096;18.328;2023-08-30T19:12:38;0.90;;;0.67;;
21281;SDS011;10800;53.096;18.328;2023-08-30T19:18:02;1.10;;;0.80;;
21281;SDS011;10800;53.096;18.328;2023-08-30T19:23:25;0.77;;;0.77;;
21281;SDS011;10800;53.096;18.328;2023-08-30T19:28:34;1.37;;;0.60;;
21281;SDS011;10800;53.096;18.328;2023-08-30T19:34:00;4.47;;;0.80;;
21281;SDS011;10800;53.096;18.328;2023-08-30T19:39:25;1.57;;;1.30;;
21281;SDS011;10800;53.096;18.328;2023-08-30T19:44:36;1.70;;;1.23;;
21281;SDS011;10800;53.096;18.328;2023-08-30T19:49:42;0.80;;;0.80;;
21281;SDS011;10800;53.096;18.328;2023-08-30T19:54:50;1.27;;;1.10;;
21281;SDS011;10800;53.096;18.328;2023-08-30T20:00:02;2.00;;;1.17;;
21281;SDS011;10800;53.096;18.328;2023-08-30T20:11:09;1.10;;;0.97;;
21281;SDS011;10800;53.096;18.328;2023-08-30T20:16:16;3.33;;;1.70;;
21281;SDS011;10800;53.096;18.328;2023-08-30T20:21:27;3.57;;;1.57;;
21281;SDS011;10800;53.096;18.328;2023-08-30T20:26:37;1.83;;;0.93;;
21281;SDS011;10800;53.096;18.328;2023-08-30T20:31:44;1.57;;;1.03;;
21281;SDS011;10800;53.096;18.328;2023-08-30T20:36:50;1.57;;;1.00;;
21281;SDS011;10800;53.096;18.328;2023-08-30T20:41:56;1.57;;;0.90;;
21281;SDS011;10800;53.096;18.328;2023-08-30T20:47:06;0.73;;;0.73;;
21281;SDS011;10800;53.096;18.328;2023-08-30T20:52:22;1.27;;;0.70;;
21281;SDS011;10800;53.096;18.328;2023-08-30T20:57:27;0.83;;;0.73;;
21281;SDS011;10800;53.096;18.328;2023-08-30T21:02:33;1.07;;;0.80;;
21281;SDS011;10800;53.096;18.328;2023-08-30T21:07:39;3.30;;;1.00;;
21281;SDS011;10800;53.096;18.328;2023-08-30T21:12:45;1.10;;;0.90;;
21281;SDS011;10800;53.096;18.328;2023-08-30T21:17:52;0.63;;;0.57;;
21281;SDS011;10800;53.096;18.328;2023-08-30T21:22:58;2.73;;;1.07;;
21281;SDS011;10800;53.096;18.328;2023-08-30T21:28:07;4.60;;;0.77;;
21281;SDS011;10800;53.096;18.328;2023-08-30T21:33:17;1.87;;;0.80;;
21281;SDS011;10800;53.096;18.328;2023-08-30T21:38:22;0.80;;;0.80;;
21281;SDS011;10800;53.096;18.328;2023-08-30T21:43:30;3.93;;;1.10;;
21281;SDS011;10800;53.096;18.328;2023-08-30T21:48:38;1.13;;;0.70;;
21281;SDS011;10800;53.096;18.328;2023-08-30T21:53:52;1.00;;;0.70;;
21281;SDS011;10800;53.096;18.328;2023-08-30T21:59:01;1.80;;;0.90;;
21281;SDS011;10800;53.096;18.328;2023-08-30T22:04:09;1.03;;;0.70;;
21281;SDS011;10800;53.096;18.328;2023-08-30T22:09:17;3.10;;;0.90;;
21281;SDS011;10800;53.096;18.328;2023-08-30T22:14:29;2.33;;;0.70;;
21281;SDS011;10800;53.096;18.328;2023-08-30T22:19:42;1.30;;;0.70;;
21281;SDS011;10800;53.096;18.328;2023-08-30T22:24:50;1.03;;;0.80;;
21281;SDS011;10800;53.096;18.328;2023-08-30T22:29:56;1.93;;;0.80;;
21281;SDS011;10800;53.096;18.328;2023-08-30T22:35:04;1.07;;;0.63;;
21281;SDS011;10800;53.096;18.328;2023-08-30T22:40:13;3.10;;;0.80;;
21281;SDS011;10800;53.096;18.328;2023-08-30T22:45:18;2.13;;;0.90;;
21281;SDS011;10800;53.096;18.328;2023-08-30T22:50:24;2.70;;;0.87;;
21281;SDS011;10800;53.096;18.328;2023-08-30T22:55:31;2.43;;;0.77;;
21281;SDS011;10800;53.096;18.328;2023-08-30T23:00:38;2.80;;;0.87;;
21281;SDS011;10800;53.096;18.328;2023-08-30T23:05:44;2.10;;;0.90;;
21281;SDS011;10800;53.096;18.328;2023-08-30T23:10:50;2.80;;;1.03;;
21281;SDS011;10800;53.096;18.328;2023-08-30T23:15:56;1.10;;;1.00;;
21281;SDS011;10800;53.096;18.328;2023-08-30T23:21:02;1.00;;;0.90;;
21281;SDS011;10800;53.096;18.328;2023-08-30T23:26:08;5.07;;;1.00;;
21281;SDS011;10800;53.096;18.328;2023-08-30T23:31:13;2.57;;;1.00;;
21281;SDS011;10800;53.096;18.328;2023-08-30T23:36:21;1.47;;;0.93;;
21281;SDS011;10800;53.096;18.328;2023-08-30T23:41:28;2.10;;;0.90;;
21281;SDS011;10800;53.096;18.328;2023-08-30T23:46:35;2.77;;;1.30;;
21281;SDS011;10800;53.096;18.328;2023-08-30T23:51:42;6.83;;;1.17;;
21281;SDS011;10800;53.096;18.328;2023-08-30T23:56:48;2.20;;;1.10;;
